Time;durP1;ratioP1;P1;durP2;ratioP2;P2;SDS_P1;SDS_P2;PMS_P1;PMS_P2;Temp;Humidity;BMP_temperature;BMP_pressure;BME280_temperature;BME280_humidity;BME280_pressure;Samples;Min_cycle;Max_cycle;Signal;HPM_P1;HPM_P2
2022/10/06 00:00:35;;;;;;;0.05;0.05;;;;;;;14.46;100.00;97128.97;5026936;28;20045;-73
2022/10/06 00:03:22;;;;;;;0.10;0.10;;;;;;;14.35;100.00;97154.16;5027654;28;20528;-73
2022/10/06 00:06:13;;;;;;;0.00;0.00;;;;;;;13.86;100.00;97171.16;5024155;28;20132;-73
2022/10/06 00:08:59;;;;;;;0.00;0.00;;;;;;;13.54;100.00;97180.97;5027736;28;20041;-74
2022/10/06 00:11:45;;;;;;;0.08;0.08;;;;;;;13.34;100.00;97184.22;5026061;28;20227;-76
2022/10/06 00:14:31;;;;;;;0.10;0.10;;;;;;;13.19;100.00;97192.03;5027581;28;20382;-74
2022/10/06 00:17:16;;;;;;;0.10;0.10;;;;;;;13.18;100.00;97180.47;5028523;28;20036;-75
2022/10/06 00:20:04;;;;;;;0.08;0.08;;;;;;;13.10;100.00;97191.66;5023281;28;20563;-75
2022/10/06 00:22:51;;;;;;;0.10;0.10;;;;;;;13.10;100.00;97197.81;5027213;28;20076;-75
2022/10/06 00:25:37;;;;;;;0.10;0.10;;;;;;;13.06;100.00;97199.38;5026584;28;20041;-75
2022/10/06 00:28:23;;;;;;;0.10;0.10;;;;;;;13.02;100.00;97192.06;5024979;28;20049;-76
2022/10/06 00:31:09;;;;;;;0.10;0.10;;;;;;;13.06;100.00;97206.63;5024454;28;20539;-74
2022/10/06 00:33:55;;;;;;;0.08;0.08;;;;;;;13.07;100.00;97210.94;5027037;28;20413;-75
2022/10/06 00:36:42;;;;;;;0.10;0.10;;;;;;;13.05;100.00;97208.50;5024427;28;20420;-74
2022/10/06 00:39:28;;;;;;;0.10;0.10;;;;;;;13.02;100.00;97219.75;5025949;28;20069;-75
2022/10/06 00:42:51;;;;;;;0.10;0.10;;;;;;;12.92;100.00;97221.44;5024688;28;20582;-75
2022/10/06 00:45:47;;;;;;;0.10;0.10;;;;;;;12.95;100.00;97218.28;5023175;28;20049;-75
2022/10/06 00:48:33;;;;;;;0.10;0.10;;;;;;;12.93;100.00;97223.91;5027243;28;20040;-74
2022/10/06 00:51:21;;;;;;;0.10;0.10;;;;;;;12.86;100.00;97222.44;5025340;28;20214;-74
2022/10/06 00:54:07;;;;;;;0.10;0.10;;;;;;;12.83;100.00;97231.78;5025597;28;20033;-76
2022/10/06 00:56:53;;;;;;;0.10;0.10;;;;;;;12.72;100.00;97243.41;5026129;28;20630;-75
2022/10/06 00:59:39;;;;;;;0.10;0.10;;;;;;;12.71;100.00;97239.09;5023671;28;20460;-75
2022/10/06 01:02:34;;;;;;;0.10;0.10;;;;;;;12.72;100.00;97241.53;5027025;28;20076;-74
2022/10/06 01:05:26;;;;;;;0.10;0.10;;;;;;;12.74;100.00;97236.75;5040410;28;20041;-74
2022/10/06 01:08:13;;;;;;;0.05;0.05;;;;;;;12.70;100.00;97237.47;5026487;28;20044;-75
2022/10/06 01:11:01;;;;;;;0.10;0.10;;;;;;;12.73;100.00;97242.34;5024381;28;20048;-75
2022/10/06 01:13:48;;;;;;;0.10;0.10;;;;;;;12.68;100.00;97253.00;5027942;28;20040;-75
2022/10/06 01:16:38;;;;;;;0.10;0.10;;;;;;;12.69;100.00;97268.09;5023149;28;20072;-75
2022/10/06 01:19:43;;;;;;;0.10;0.10;;;;;;;12.60;100.00;97266.81;5025627;28;20096;-74
2022/10/06 01:22:33;;;;;;;0.00;0.00;;;;;;;12.58;100.00;97274.31;5027290;28;20071;-75
2022/10/06 01:25:19;;;;;;;0.10;0.10;;;;;;;12.49;100.00;97285.44;5025694;28;20063;-75
2022/10/06 01:28:07;;;;;;;0.10;0.10;;;;;;;12.31;100.00;97276.78;5027221;28;21018;-74
2022/10/06 01:30:56;;;;;;;0.10;0.10;;;;;;;12.08;100.00;97291.91;5024531;28;20045;-74
2022/10/06 01:33:43;;;;;;;0.10;0.10;;;;;;;11.90;100.00;97284.81;5027976;28;20623;-74
2022/10/06 01:36:30;;;;;;;0.08;0.08;;;;;;;11.90;100.00;97302.75;5026214;28;20071;-74
2022/10/06 01:39:16;;;;;;;0.10;0.10;;;;;;;11.84;100.00;97307.22;5025003;28;20288;-75
2022/10/06 01:42:02;;;;;;;0.10;0.10;;;;;;;11.74;100.00;97290.88;5036029;28;20132;-74
2022/10/06 01:44:48;;;;;;;0.10;0.10;;;;;;;11.78;100.00;97297.41;5024429;28;20447;-74
2022/10/06 01:47:34;;;;;;;0.10;0.10;;;;;;;11.81;100.00;97296.94;5025499;28;20151;-74
2022/10/06 01:50:20;;;;;;;0.10;0.10;;;;;;;11.91;100.00;97302.56;5023669;28;20048;-75
2022/10/06 01:53:06;;;;;;;0.10;0.10;;;;;;;11.93;100.00;97295.06;5023510;28;20615;-74
2022/10/06 01:55:57;;;;;;;0.10;0.10;;;;;;;11.96;100.00;97296.47;5024544;28;20045;-75
2022/10/06 01:58:47;;;;;;;0.10;0.10;;;;;;;12.02;100.00;97327.72;5029087;28;20544;-74
2022/10/06 02:01:33;;;;;;;0.10;0.10;;;;;;;12.01;100.00;97333.31;5023324;28;20045;-74
2022/10/06 02:04:18;;;;;;;0.10;0.10;;;;;;;11.96;100.00;97320.59;5024930;28;20599;-74
2022/10/06 02:07:05;;;;;;;0.10;0.10;;;;;;;11.95;100.00;97338.56;5022343;28;20045;-74
2022/10/06 02:09:59;;;;;;;0.10;0.10;;;;;;;12.01;100.00;97341.38;5020776;28;20733;-75
2022/10/06 02:12:50;;;;;;;0.10;0.10;;;;;;;11.98;100.00;97327.38;5014262;28;20065;-75
2022/10/06 02:15:37;;;;;;;0.10;0.10;;;;;;;11.98;100.00;97332.75;5023621;28;20284;-75
2022/10/06 02:18:24;;;;;;;0.10;0.10;;;;;;;12.02;100.00;97333.06;5023828;28;20048;-75
2022/10/06 02:21:15;;;;;;;0.10;0.10;;;;;;;12.00;100.00;97337.88;5021149;28;20120;-75
2022/10/06 02:24:01;;;;;;;0.10;0.10;;;;;;;11.91;100.00;97337.41;5023329;28;20041;-73
2022/10/06 02:26:47;;;;;;;0.10;0.10;;;;;;;11.90;100.00;97333.06;5025740;28;20127;-74
2022/10/06 02:29:33;;;;;;;0.10;0.10;;;;;;;11.93;100.00;97358.63;5023258;28;20045;-74
2022/10/06 02:32:19;;;;;;;0.10;0.10;;;;;;;11.90;100.00;97351.03;5027183;28;20468;-74
2022/10/06 02:35:05;;;;;;;0.10;0.10;;;;;;;11.90;100.00;97343.81;5023394;28;20037;-74
2022/10/06 02:37:52;;;;;;;0.10;0.10;;;;;;;11.88;100.00;97353.97;5041675;28;20073;-74
2022/10/06 02:40:39;;;;;;;0.10;0.10;;;;;;;11.89;100.00;97357.47;5028994;28;20049;-74
2022/10/06 02:43:30;;;;;;;0.10;0.10;;;;;;;11.90;100.00;97354.53;5021455;28;20059;-74
2022/10/06 02:46:18;;;;;;;0.10;0.10;;;;;;;11.89;100.00;97366.31;5037400;28;20037;-74
2022/10/06 02:49:07;;;;;;;0.10;0.10;;;;;;;11.90;100.00;97372.50;5020463;28;20532;-73
2022/10/06 02:51:54;;;;;;;0.10;0.10;;;;;;;11.94;100.00;97366.44;5022489;28;20611;-74
2022/10/06 02:54:41;;;;;;;0.10;0.10;;;;;;;11.93;100.00;97375.53;5022580;28;20649;-74
2022/10/06 02:57:27;;;;;;;0.10;0.10;;;;;;;11.94;100.00;97398.63;5024810;28;20037;-74
2022/10/06 03:00:13;;;;;;;0.10;0.10;;;;;;;11.87;100.00;97397.09;5021304;28;20041;-74
2022/10/06 03:03:00;;;;;;;0.10;0.10;;;;;;;11.79;100.00;97398.25;5026257;28;20595;-74
2022/10/06 03:05:46;;;;;;;0.10;0.10;;;;;;;11.66;100.00;97390.41;5024319;28;20037;-74
2022/10/06 03:08:32;;;;;;;0.10;0.10;;;;;;;11.59;100.00;97409.28;5030163;28;20041;-73
2022/10/06 03:11:21;;;;;;;0.10;0.10;;;;;;;11.59;100.00;97411.16;5022236;28;20235;-74
2022/10/06 03:14:08;;;;;;;0.10;0.10;;;;;;;11.54;100.00;97414.56;5021946;28;20045;-75
2022/10/06 03:16:55;;;;;;;0.10;0.10;;;;;;;11.45;100.00;97402.53;5024900;28;20504;-75
2022/10/06 03:19:44;;;;;;;0.10;0.10;;;;;;;11.38;100.00;97409.88;5020759;28;20141;-75
2022/10/06 03:22:30;;;;;;;0.10;0.10;;;;;;;11.25;100.00;97408.19;5012429;28;20056;-75
2022/10/06 03:25:16;;;;;;;0.10;0.10;;;;;;;11.26;100.00;97423.22;5023365;28;20096;-75
2022/10/06 03:28:03;;;;;;;0.10;0.10;;;;;;;11.30;100.00;97424.41;5021723;28;20052;-75
2022/10/06 03:30:49;;;;;;;0.10;0.10;;;;;;;11.28;100.00;97421.13;5023403;28;20055;-75
2022/10/06 03:33:36;;;;;;;0.10;0.10;;;;;;;11.19;100.00;97429.72;5024050;28;20051;-75
2022/10/06 03:36:24;;;;;;;0.10;0.10;;;;;;;11.16;100.00;97436.38;5011802;28;20685;-75
2022/10/06 03:39:10;;;;;;;0.20;0.10;;;;;;;11.06;100.00;97436.94;5011184;28;20485;-75
2022/10/06 03:41:57;;;;;;;0.13;0.10;;;;;;;11.00;100.00;97450.41;5025077;28;20599;-75
2022/10/06 03:44:43;;;;;;;0.10;0.10;;;;;;;11.07;100.00;97453.81;5021858;28;20068;-75
2022/10/06 03:47:32;;;;;;;0.10;0.10;;;;;;;11.14;100.00;97471.44;5039837;28;20056;-75
2022/10/06 03:50:17;;;;;;;0.10;0.10;;;;;;;11.23;100.00;97487.19;5018770;28;20266;-75
2022/10/06 03:53:03;;;;;;;0.20;0.13;;;;;;;11.21;100.00;97479.38;5023471;28;20558;-75
2022/10/06 03:56:05;;;;;;;0.10;0.10;;;;;;;11.20;100.00;97483.06;5021191;28;20449;-75
2022/10/06 03:59:03;;;;;;;0.10;0.10;;;;;;;11.17;100.00;97486.22;5040093;28;20041;-76
2022/10/06 04:01:49;;;;;;;0.10;0.10;;;;;;;11.11;100.00;97481.75;5023167;28;20048;-75
2022/10/06 04:04:39;;;;;;;0.08;0.08;;;;;;;11.10;100.00;97488.97;5020965;28;20041;-75
2022/10/06 04:07:29;;;;;;;0.10;0.10;;;;;;;11.12;100.00;97492.25;5024600;28;20151;-75
2022/10/06 04:10:15;;;;;;;0.20;0.15;;;;;;;11.02;100.00;97496.50;5023298;28;20069;-76
2022/10/06 04:13:01;;;;;;;0.20;0.20;;;;;;;10.82;100.00;97510.97;5024173;28;20033;-75
2022/10/06 04:15:47;;;;;;;0.10;0.10;;;;;;;10.61;100.00;97506.06;5029060;28;20041;-74
2022/10/06 04:18:33;;;;;;;0.10;0.10;;;;;;;10.56;100.00;97519.28;5029007;28;20041;-75
2022/10/06 04:21:20;;;;;;;0.10;0.10;;;;;;;10.39;100.00;97524.41;5026313;28;20210;-74
2022/10/06 04:24:12;;;;;;;0.13;0.10;;;;;;;10.24;100.00;97526.63;5026501;28;20045;-75
2022/10/06 04:30:17;;;;;;;0.20;0.20;;;;;;;10.01;100.00;97535.22;5023307;28;20571;-74
2022/10/06 04:33:03;;;;;;;0.20;0.20;;;;;;;9.88;100.00;97546.00;5031787;28;20041;-75
2022/10/06 04:36:04;;;;;;;0.30;0.20;;;;;;;9.80;100.00;97544.44;5025901;28;20048;-75
2022/10/06 04:38:55;;;;;;;0.17;0.17;;;;;;;9.74;100.00;97542.66;5016062;28;20082;-75
2022/10/06 04:41:45;;;;;;;0.10;0.10;;;;;;;9.62;100.00;97537.16;5026904;28;20044;-75
2022/10/06 04:44:31;;;;;;;0.10;0.10;;;;;;;9.58;100.00;97549.31;5026413;28;20425;-74
2022/10/06 04:47:20;;;;;;;0.03;0.03;;;;;;;9.51;100.00;97556.56;5015636;28;20296;-74
2022/10/06 04:50:08;;;;;;;0.10;0.10;;;;;;;9.45;100.00;97552.06;5024972;28;20152;-75
2022/10/06 04:52:53;;;;;;;0.10;0.10;;;;;;;9.40;100.00;97551.88;5042117;28;20127;-74
2022/10/06 04:55:40;;;;;;;0.10;0.10;;;;;;;9.36;100.00;97558.72;5027161;28;20049;-75
2022/10/06 04:58:30;;;;;;;0.10;0.10;;;;;;;9.30;100.00;97572.91;5028004;28;20053;-74
2022/10/06 05:01:18;;;;;;;0.10;0.10;;;;;;;9.25;100.00;97578.88;5029295;28;20135;-74
2022/10/06 05:04:06;;;;;;;0.17;0.17;;;;;;;9.18;100.00;97580.75;5025916;28;20040;-75
2022/10/06 05:06:53;;;;;;;0.20;0.13;;;;;;;9.11;100.00;97585.34;5031057;28;20069;-74
2022/10/06 05:09:39;;;;;;;0.10;0.10;;;;;;;9.11;100.00;97596.81;5012029;28;20146;-75
2022/10/06 05:12:29;;;;;;;0.10;0.10;;;;;;;9.10;100.00;97605.84;5027811;28;20126;-75
2022/10/06 05:15:15;;;;;;;0.10;0.10;;;;;;;9.05;100.00;97616.34;5029356;28;20468;-75
2022/10/06 05:18:01;;;;;;;0.10;0.10;;;;;;;9.00;100.00;97610.81;5026644;28;20341;-75
2022/10/06 05:21:04;;;;;;;0.13;0.10;;;;;;;9.04;100.00;97617.38;5025540;28;20136;-74
2022/10/06 05:23:51;;;;;;;0.20;0.20;;;;;;;9.08;100.00;97623.94;5026875;28;20507;-75
2022/10/06 05:26:37;;;;;;;0.10;0.10;;;;;;;9.15;100.00;97634.59;5028028;28;20106;-74
2022/10/06 05:29:26;;;;;;;0.10;0.10;;;;;;;9.37;100.00;97641.28;5029829;28;20037;-74
2022/10/06 05:32:13;;;;;;;0.15;0.10;;;;;;;9.55;100.00;97635.25;5025950;28;20061;-75
2022/10/06 05:35:00;;;;;;;0.15;0.15;;;;;;;9.61;100.00;97638.94;5029164;28;20042;-75
2022/10/06 05:37:45;;;;;;;0.10;0.10;;;;;;;9.58;100.00;97642.84;5013910;28;20068;-75
2022/10/06 05:40:31;;;;;;;0.10;0.10;;;;;;;9.62;100.00;97641.38;5023719;28;20608;-75
2022/10/06 05:43:17;;;;;;;0.10;0.10;;;;;;;9.57;100.00;97645.72;5026538;28;20098;-75
2022/10/06 05:46:06;;;;;;;0.10;0.10;;;;;;;9.50;100.00;97632.41;5027949;28;20405;-75
2022/10/06 05:49:04;;;;;;;0.13;0.13;;;;;;;9.52;100.00;97656.25;5027675;28;20129;-75
2022/10/06 05:51:52;;;;;;;0.30;0.15;;;;;;;9.40;100.00;97656.88;5029480;28;20594;-75
2022/10/06 05:54:46;;;;;;;0.10;0.10;;;;;;;9.27;100.00;97659.63;5030283;28;20503;-75
2022/10/06 05:57:31;;;;;;;0.10;0.10;;;;;;;9.28;100.00;97661.28;5030386;28;20037;-74
2022/10/06 06:00:18;;;;;;;0.20;0.20;;;;;;;9.18;100.00;97664.38;5026152;28;20273;-75
2022/10/06 06:03:08;;;;;;;0.20;0.20;;;;;;;9.20;100.00;97670.34;5031262;28;20131;-75
2022/10/06 06:05:54;;;;;;;0.10;0.10;;;;;;;9.21;100.00;97679.16;5026467;28;20040;-75
2022/10/06 06:08:40;;;;;;;0.10;0.10;;;;;;;9.35;100.00;97682.63;5032098;28;20136;-75
2022/10/06 06:11:30;;;;;;;0.10;0.10;;;;;;;9.46;100.00;97695.31;5027253;28;20072;-75
2022/10/06 06:14:18;;;;;;;0.10;0.10;;;;;;;9.53;100.00;97688.09;5028345;28;20099;-75
2022/10/06 06:17:06;;;;;;;0.10;0.10;;;;;;;9.51;100.00;97690.16;5027400;28;20045;-75
2022/10/06 06:19:52;;;;;;;0.10;0.10;;;;;;;9.37;100.00;97696.56;5020888;28;20429;-75
2022/10/06 06:22:38;;;;;;;0.15;0.10;;;;;;;9.27;100.00;97712.22;5032426;28;20041;-75
2022/10/06 06:25:25;;;;;;;0.10;0.10;;;;;;;9.35;100.00;97706.66;5043016;28;20154;-75
2022/10/06 06:28:11;;;;;;;0.25;0.15;;;;;;;9.32;100.00;97707.06;5025368;28;20277;-75
2022/10/06 06:31:06;;;;;;;0.10;0.10;;;;;;;9.30;100.00;97717.97;5027057;28;20622;-75
2022/10/06 06:33:55;;;;;;;0.20;0.20;;;;;;;9.33;100.00;97722.06;5024271;28;20126;-75
2022/10/06 06:36:46;;;;;;;0.10;0.10;;;;;;;9.28;100.00;97725.38;5030168;28;20542;-75
2022/10/06 06:39:35;;;;;;;0.10;0.10;;;;;;;9.28;100.00;97725.38;5026130;28;20057;-75
2022/10/06 06:42:21;;;;;;;0.10;0.10;;;;;;;9.31;100.00;97726.78;5025863;28;20528;-75
2022/10/06 06:45:08;;;;;;;0.30;0.28;;;;;;;9.34;100.00;97737.06;5025207;28;20055;-75
2022/10/06 06:47:57;;;;;;;0.25;0.20;;;;;;;9.47;100.00;97731.69;5037666;28;20037;-75
2022/10/06 06:50:44;;;;;;;0.20;0.20;;;;;;;9.55;100.00;97741.31;5025970;28;20259;-75
2022/10/06 06:53:31;;;;;;;0.20;0.17;;;;;;;9.59;100.00;97754.06;5023567;28;20096;-75
2022/10/06 06:56:22;;;;;;;0.13;0.13;;;;;;;9.60;100.00;97750.34;5025608;28;20204;-75
2022/10/06 06:59:10;;;;;;;0.20;0.20;;;;;;;9.65;100.00;97750.56;5025826;28;20076;-75
2022/10/06 07:01:57;;;;;;;0.15;0.10;;;;;;;9.70;100.00;97760.59;5026632;28;20041;-75
2022/10/06 07:04:44;;;;;;;0.20;0.10;;;;;;;9.76;100.00;97757.91;5042419;28;20045;-75
2022/10/06 07:07:34;;;;;;;0.10;0.10;;;;;;;9.87;100.00;97761.75;5036775;28;20487;-75
2022/10/06 07:10:21;;;;;;;0.32;0.20;;;;;;;9.99;100.00;97764.59;5021586;28;20222;-75
2022/10/06 07:13:12;;;;;;;0.20;0.20;;;;;;;10.10;100.00;97771.94;5027545;28;20176;-76
2022/10/06 07:25:24;;;;;;;0.10;0.10;;;;;;;10.61;100.00;97789.78;5029623;28;20053;-74
2022/10/06 07:28:11;;;;;;;0.55;0.20;;;;;;;10.76;100.00;97784.94;5035268;28;20139;-74
2022/10/06 07:30:59;;;;;;;0.10;0.10;;;;;;;10.84;100.00;97795.41;5014092;28;20119;-74
2022/10/06 07:33:45;;;;;;;0.10;0.10;;;;;;;10.86;100.00;97792.50;5032662;28;20033;-74
2022/10/06 07:36:32;;;;;;;0.10;0.10;;;;;;;10.83;100.00;97799.13;5047858;28;20040;-74
2022/10/06 07:39:17;;;;;;;0.10;0.10;;;;;;;10.90;100.00;97795.56;5015104;28;20041;-74
2022/10/06 07:42:10;;;;;;;0.25;0.20;;;;;;;11.00;100.00;97804.75;5045297;28;20044;-74
2022/10/06 07:48:03;;;;;;;0.20;0.10;;;;;;;11.18;100.00;97821.91;5019023;28;20496;-74
2022/10/06 07:50:51;;;;;;;0.10;0.10;;;;;;;11.27;100.00;97821.41;5020418;28;20393;-74
2022/10/06 07:53:45;;;;;;;0.10;0.10;;;;;;;11.34;100.00;97826.72;5031544;28;20048;-75
2022/10/06 07:56:39;;;;;;;0.10;0.10;;;;;;;11.36;100.00;97836.19;5024729;28;20750;-74
2022/10/06 07:59:25;;;;;;;0.10;0.10;;;;;;;11.24;100.00;97843.28;5031844;28;20347;-74
2022/10/06 08:02:11;;;;;;;0.10;0.10;;;;;;;11.29;100.00;97842.66;5047967;28;20040;-74
2022/10/06 08:04:57;;;;;;;0.10;0.10;;;;;;;11.13;100.00;97852.88;5035647;28;20909;-74
2022/10/06 08:07:43;;;;;;;0.10;0.10;;;;;;;11.12;100.00;97847.72;5050189;28;20070;-74
2022/10/06 08:10:29;;;;;;;0.20;0.20;;;;;;;11.13;100.00;97857.41;5051004;28;20118;-74
2022/10/06 08:13:15;;;;;;;0.30;0.13;;;;;;;11.09;100.00;97850.84;5046288;28;20664;-74
2022/10/06 08:16:10;;;;;;;0.10;0.10;;;;;;;11.13;100.00;97852.88;5048436;28;20467;-74
2022/10/06 08:18:58;;;;;;;0.20;0.20;;;;;;;11.21;100.00;97859.00;5038065;28;20068;-74
2022/10/06 08:21:44;;;;;;;0.10;0.10;;;;;;;11.22;100.00;97856.09;5048617;28;20037;-74
2022/10/06 08:24:30;;;;;;;0.10;0.10;;;;;;;11.10;100.00;97863.19;5048633;28;20075;-74
2022/10/06 08:27:18;;;;;;;0.20;0.17;;;;;;;11.10;100.00;97868.53;5038065;28;20059;-74
2022/10/06 08:30:06;;;;;;;0.17;0.10;;;;;;;11.19;100.00;97872.59;5050144;28;20041;-74
2022/10/06 08:32:51;;;;;;;0.10;0.10;;;;;;;11.19;100.00;97888.66;5051147;28;20087;-74
2022/10/06 08:35:38;;;;;;;0.40;0.20;;;;;;;11.13;100.00;97882.34;5042471;28;20040;-74
2022/10/06 08:38:24;;;;;;;0.13;0.13;;;;;;;11.30;100.00;97885.31;5049279;28;20681;-74
2022/10/06 08:41:23;;;;;;;0.17;0.17;;;;;;;11.40;100.00;97899.03;5045801;28;20114;-74
2022/10/06 08:44:16;;;;;;;0.10;0.10;;;;;;;11.52;100.00;97898.31;5038950;28;20147;-74
2022/10/06 08:47:16;;;;;;;0.10;0.10;;;;;;;11.58;100.00;97889.38;5028811;28;20123;-74
2022/10/06 08:50:09;;;;;;;0.10;0.10;;;;;;;11.72;100.00;97896.28;5032937;28;20246;-75
2022/10/06 08:53:11;;;;;;;0.10;0.10;;;;;;;11.72;100.00;97902.44;5040899;28;20076;-74
2022/10/06 08:56:07;;;;;;;0.10;0.10;;;;;;;11.72;100.00;97896.28;5036174;28;20381;-74
2022/10/06 08:58:57;;;;;;;0.10;0.10;;;;;;;11.78;100.00;97907.97;5049441;28;20129;-74
2022/10/06 09:01:48;;;;;;;0.20;0.20;;;;;;;12.06;100.00;97912.88;5048429;28;20049;-74
2022/10/06 09:04:34;;;;;;;0.20;0.20;;;;;;;12.25;100.00;97914.53;5049431;28;20503;-74
2022/10/06 09:07:29;;;;;;;0.20;0.20;;;;;;;12.37;100.00;97910.03;5048615;28;20044;-74
2022/10/06 09:10:23;;;;;;;0.20;0.20;;;;;;;12.39;100.00;97923.28;5040912;28;20390;-74
2022/10/06 09:13:19;;;;;;;0.10;0.10;;;;;;;12.60;100.00;97924.66;5048978;28;20192;-75
2022/10/06 09:16:17;;;;;;;0.10;0.10;;;;;;;12.70;100.00;97915.03;5042477;28;20512;-74
2022/10/06 09:19:12;;;;;;;0.10;0.10;;;;;;;12.95;100.00;97916.75;5039192;28;20457;-75
2022/10/06 09:22:03;;;;;;;0.20;0.20;;;;;;;12.70;100.00;97933.00;5010159;28;20045;-75
2022/10/06 09:24:57;;;;;;;0.20;0.20;;;;;;;12.54;100.00;97926.41;5048316;28;20075;-75
2022/10/06 09:27:49;;;;;;;0.17;0.17;;;;;;;12.55;100.00;97926.16;5034111;28;20083;-75
2022/10/06 09:30:36;;;;;;;0.10;0.10;;;;;;;12.72;100.00;97926.34;5042826;28;20338;-75
2022/10/06 09:33:24;;;;;;;0.10;0.10;;;;;;;12.97;100.00;97922.72;5044063;28;20117;-75
2022/10/06 09:36:10;;;;;;;0.20;0.20;;;;;;;13.21;100.00;97929.03;5041504;28;20047;-75
2022/10/06 09:38:58;;;;;;;0.20;0.20;;;;;;;13.49;100.00;97923.84;5030130;28;20044;-75
2022/10/06 09:41:44;;;;;;;0.20;0.20;;;;;;;13.95;100.00;97933.00;5045911;28;20526;-75
2022/10/06 09:44:41;;;;;;;0.20;0.20;;;;;;;14.10;100.00;97935.22;5047443;28;20036;-75
2022/10/06 09:47:33;;;;;;;0.20;0.20;;;;;;;14.12;100.00;97931.22;5011184;28;20607;-75
2022/10/06 09:50:22;;;;;;;0.10;0.10;;;;;;;14.49;100.00;97931.81;5043183;28;20670;-75
2022/10/06 09:53:15;;;;;;;0.17;0.17;;;;;;;14.70;100.00;97938.41;5045260;28;20401;-75
2022/10/06 09:56:03;;;;;;;0.10;0.10;;;;;;;15.19;98.35;97932.63;5046069;28;20040;-75
2022/10/06 09:58:58;;;;;;;0.20;0.20;;;;;;;16.59;92.51;97922.63;5047937;28;20618;-75
2022/10/06 10:01:50;;;;;;;0.20;0.20;;;;;;;18.56;78.88;97924.63;5046228;28;20218;-75
2022/10/06 10:04:40;;;;;;;0.20;0.20;;;;;;;20.48;60.87;97922.41;5047430;28;20048;-76
2022/10/06 10:07:28;;;;;;;0.17;0.17;;;;;;;22.44;49.98;97925.97;5045675;28;20155;-75
2022/10/06 10:10:24;;;;;;;0.20;0.20;;;;;;;24.02;42.75;97929.25;5044769;28;20041;-76
2022/10/06 10:13:19;;;;;;;0.20;0.20;;;;;;;24.69;40.50;97918.75;5043888;28;20056;-76
2022/10/06 10:16:05;;;;;;;0.20;0.20;;;;;;;26.60;37.63;97917.50;5045992;28;20043;-76
2022/10/06 10:18:51;;;;;;;0.10;0.10;;;;;;;27.17;36.65;97907.34;5043191;28;20653;-76
2022/10/06 10:21:37;;;;;;;0.20;0.20;;;;;;;28.44;34.23;97921.63;5031348;28;20144;-76
2022/10/06 10:24:46;;;;;;;0.20;0.20;;;;;;;28.77;29.40;97916.31;5044932;28;20036;-76
2022/10/06 10:27:41;;;;;;;0.20;0.20;;;;;;;28.82;30.60;97921.63;4347407;28;9999924;-76
2022/10/06 10:30:29;;;;;;;0.20;0.20;;;;;;;29.64;30.53;97902.78;5031485;28;20086;-76
2022/10/06 10:33:48;;;;;;;0.17;0.17;;;;;;;29.57;28.02;97912.72;5008917;28;20071;-76
2022/10/06 10:36:58;;;;;;;0.20;0.20;;;;;;;29.69;28.46;97918.31;5045651;28;20064;-76
2022/10/06 10:39:51;;;;;;;0.10;0.10;;;;;;;31.26;27.99;97913.41;5043423;28;20145;-76
2022/10/06 10:43:03;;;;;;;0.20;0.20;;;;;;;30.16;25.89;97916.09;5045651;28;20041;-76
2022/10/06 10:45:56;;;;;;;0.13;0.13;;;;;;;31.12;27.96;97915.69;5043087;28;20391;-76
2022/10/06 10:49:00;;;;;;;0.20;0.20;;;;;;;31.92;24.15;97912.19;5044942;28;20128;-76
2022/10/06 10:51:49;;;;;;;0.20;0.20;;;;;;;32.16;24.92;97908.47;5044408;28;20517;-76
2022/10/06 10:54:37;;;;;;;0.10;0.10;;;;;;;33.20;25.16;97911.84;5044780;28;20504;-76
2022/10/06 10:57:34;;;;;;;0.10;0.10;;;;;;;33.10;22.33;97907.69;5039692;28;20078;-76
2022/10/06 11:00:24;;;;;;;0.10;0.10;;;;;;;33.58;22.52;97896.47;5039504;28;20282;-76
2022/10/06 11:03:11;;;;;;;0.10;0.10;;;;;;;34.18;23.81;97896.88;5041820;28;20037;-77
2022/10/06 11:06:13;;;;;;;0.10;0.10;;;;;;;33.58;20.94;97899.22;5043213;28;20041;-76
2022/10/06 11:09:13;;;;;;;0.20;0.20;;;;;;;34.99;20.58;97900.25;5044759;28;20477;-77
2022/10/06 11:12:13;;;;;;;0.10;0.10;;;;;;;34.84;19.49;97896.41;5045438;28;20538;-77
2022/10/06 11:15:05;;;;;;;0.10;0.10;;;;;;;35.85;21.49;97891.06;5037444;28;20079;-76
2022/10/06 11:18:00;;;;;;;0.10;0.10;;;;;;;35.58;20.99;97898.72;5037337;28;20059;-77
2022/10/06 11:20:57;;;;;;;0.10;0.10;;;;;;;36.36;19.36;97898.78;5045916;28;20496;-76
2022/10/06 11:23:53;;;;;;;0.10;0.10;;;;;;;35.98;19.09;97892.44;5045623;28;20047;-76
2022/10/06 11:26:57;;;;;;;0.15;0.15;;;;;;;36.05;19.02;97900.06;5047795;28;20053;-76
2022/10/06 11:29:49;;;;;;;0.10;0.10;;;;;;;34.23;19.77;97899.31;5048829;28;20552;-76
2022/10/06 11:32:52;;;;;;;0.10;0.10;;;;;;;33.21;20.52;97908.72;5048530;28;20099;-76
2022/10/06 11:35:42;;;;;;;0.10;0.10;;;;;;;33.05;20.81;97905.19;5030911;28;20048;-76
2022/10/06 11:38:46;;;;;;;0.10;0.10;;;;;;;33.83;20.48;97902.50;5047267;28;20463;-76
2022/10/06 11:41:48;;;;;;;0.13;0.13;;;;;;;34.91;19.90;97898.53;5041728;28;20036;-76
2022/10/06 11:44:44;;;;;;;0.10;0.10;;;;;;;36.46;18.77;97908.47;5034377;28;20106;-76
2022/10/06 11:47:39;;;;;;;0.10;0.10;;;;;;;37.57;18.84;97907.25;5041012;28;20500;-76
2022/10/06 11:50:36;;;;;;;0.10;0.10;;;;;;;38.66;17.01;97896.78;5046122;28;20534;-77
2022/10/06 11:53:33;;;;;;;0.10;0.10;;;;;;;39.11;16.45;97897.16;5048556;28;20268;-77
2022/10/06 11:56:18;;;;;;;0.10;0.10;;;;;;;38.33;18.02;97904.34;5030255;28;20045;-76
2022/10/06 11:59:22;;;;;;;0.10;0.10;;;;;;;37.79;16.31;97900.59;5048299;28;20071;-76
2022/10/06 12:02:33;;;;;;;0.00;0.00;;;;;;;38.57;15.82;97899.19;5047688;28;20579;-76
2022/10/06 12:05:19;;;;;;;0.10;0.10;;;;;;;39.35;16.70;97896.31;5046521;28;20064;-76
2022/10/06 12:08:08;;;;;;;0.10;0.10;;;;;;;39.55;16.48;97889.06;5048260;28;20427;-77
2022/10/06 12:10:54;;;;;;;0.10;0.10;;;;;;;39.84;15.95;97884.13;5038296;28;20036;-76
2022/10/06 12:13:47;;;;;;;0.10;0.10;;;;;;;39.40;15.87;97897.94;5040261;28;20086;-76
2022/10/06 12:16:38;;;;;;;0.10;0.10;;;;;;;39.23;16.52;97877.97;5051273;28;20032;-77
2022/10/06 12:19:46;;;;;;;0.10;0.10;;;;;;;38.77;15.14;97882.84;5046701;28;20433;-77
2022/10/06 12:23:07;;;;;;;0.10;0.10;;;;;;;39.68;15.25;97881.03;5048937;28;20120;-77
2022/10/06 12:26:12;;;;;;;0.10;0.10;;;;;;;39.88;14.62;97886.13;5051081;28;20098;-77
2022/10/06 12:29:02;;;;;;;0.10;0.10;;;;;;;39.57;15.63;97883.06;5047829;28;20037;-77
2022/10/06 12:32:01;;;;;;;0.00;0.00;;;;;;;37.49;15.32;97880.50;5049254;28;20567;-76
2022/10/06 12:34:50;;;;;;;;;;;;;;;38.82;14.74;97876.81;5051124;28;20044;-77
2022/10/06 12:37:39;;;;;;;0.10;0.10;;;;;;;40.17;15.65;97867.97;5050190;28;19927;-76
2022/10/06 12:40:37;;;;;;;0.10;0.10;;;;;;;40.03;14.19;97870.88;5049070;28;20326;-76
2022/10/06 12:43:22;;;;;;;0.10;0.10;;;;;;;39.55;15.32;97868.66;5045673;28;20094;-77
2022/10/06 12:46:20;;;;;;;0.10;0.10;;;;;;;39.52;14.59;97875.84;5047968;28;20511;-77
2022/10/06 12:49:25;;;;;;;0.10;0.10;;;;;;;37.87;15.41;97873.50;5052080;28;20036;-77
2022/10/06 12:52:30;;;;;;;0.10;0.10;;;;;;;39.60;14.75;97868.25;5048062;28;20460;-77
2022/10/06 12:55:42;;;;;;;0.10;0.10;;;;;;;40.70;14.21;97868.78;5048310;28;20048;-77
2022/10/06 12:58:31;;;;;;;0.10;0.10;;;;;;;40.79;14.68;97871.91;5047409;28;20476;-76
2022/10/06 13:01:17;;;;;;;0.10;0.10;;;;;;;41.50;14.75;97871.19;5044418;28;20237;-77
2022/10/06 13:04:02;;;;;;;0.10;0.10;;;;;;;41.90;14.34;97868.69;5047632;28;20079;-77
2022/10/06 13:06:48;;;;;;;0.10;0.10;;;;;;;41.43;14.97;97862.84;5050578;28;20052;-77
2022/10/06 13:09:35;;;;;;;0.20;0.20;;;;;;;40.67;14.04;97864.78;5049269;28;20044;-77
2022/10/06 13:12:26;;;;;;;0.13;0.13;;;;;;;35.33;17.44;97869.72;5048410;28;20120;-77
2022/10/06 13:15:23;;;;;;;0.10;0.10;;;;;;;36.41;17.50;97867.78;5047886;28;20092;-77
2022/10/06 13:18:23;;;;;;;0.10;0.10;;;;;;;38.86;15.59;97861.63;5046782;28;20127;-77
2022/10/06 13:21:16;;;;;;;0.00;0.00;;;;;;;37.30;17.28;97868.44;5045971;28;20119;-77
2022/10/06 13:24:02;;;;;;;0.25;0.25;;;;;;;34.04;17.85;97875.19;5039382;28;20500;-77
2022/10/06 13:26:48;;;;;;;0.10;0.10;;;;;;;33.16;19.15;97866.63;5046982;28;20094;-77
2022/10/06 13:29:34;;;;;;;0.10;0.10;;;;;;;35.91;18.26;97858.94;5051425;28;20037;-77
2022/10/06 13:32:19;;;;;;;0.10;0.10;;;;;;;35.77;18.40;97871.88;5048519;28;20412;-77